Time;durP1;ratioP1;P1;durP2;ratioP2;P2;SDS_P1;SDS_P2;PMS_P1;PMS_P2;Temp;Humidity;BMP_temperature;BMP_pressure;BME280_temperature;BME280_humidity;BME280_pressure;Samples;Min_cycle;Max_cycle;Signal;HPM_P1;HPM_P2
2023/10/22 00:02:18;;;;;;;1.17;0.77;;;17.60;70.20;;;;;;5114321;28;20229;-59
2023/10/22 00:04:44;;;;;;;1.45;0.68;;;17.70;70.50;;;;;;5114673;28;20166;-58
2023/10/22 00:07:10;;;;;;;1.65;0.77;;;17.60;70.30;;;;;;5113780;28;20173;-59
2023/10/22 00:09:36;;;;;;;1.60;1.20;;;17.60;70.30;;;;;;5114128;28;20187;-60
2023/10/22 00:12:01;;;;;;;1.92;0.80;;;17.60;70.40;;;;;;5113568;27;20231;-60
2023/10/22 00:14:27;;;;;;;2.38;0.85;;;17.60;70.20;;;;;;5113525;28;20631;-60
2023/10/22 00:16:52;;;;;;;1.15;0.60;;;17.60;70.30;;;;;;5114211;28;20256;-59
2023/10/22 00:19:18;;;;;;;3.25;0.70;;;17.60;70.40;;;;;;5113927;28;20268;-60
2023/10/22 00:21:45;;;;;;;1.13;0.80;;;17.60;70.30;;;;;;5113297;28;20272;-59
2023/10/22 00:24:10;;;;;;;1.00;0.60;;;17.60;70.40;;;;;;5114060;28;20173;-59
2023/10/22 00:26:36;;;;;;;1.95;0.70;;;17.60;70.40;;;;;;5113272;28;20180;-60
2023/10/22 00:29:02;;;;;;;1.42;0.70;;;17.60;70.40;;;;;;5113240;28;20174;-59
2023/10/22 00:31:27;;;;;;;1.75;0.70;;;17.60;70.40;;;;;;5113352;28;20197;-59
2023/10/22 00:33:53;;;;;;;1.40;0.70;;;17.60;70.40;;;;;;5112960;28;20173;-59
2023/10/22 00:36:18;;;;;;;1.52;0.80;;;17.60;70.40;;;;;;5113803;28;20267;-59
2023/10/22 00:38:44;;;;;;;2.45;0.85;;;17.60;70.40;;;;;;5113849;28;20251;-58
2023/10/22 00:41:09;;;;;;;2.25;0.77;;;17.60;70.30;;;;;;5113143;28;20532;-59
2023/10/22 00:43:35;;;;;;;2.50;1.00;;;17.60;70.40;;;;;;5113187;28;20615;-59
2023/10/22 00:46:02;;;;;;;0.93;0.80;;;17.60;70.40;;;;;;5113324;28;20189;-59
2023/10/22 00:48:28;;;;;;;2.05;0.98;;;17.50;70.30;;;;;;5095158;28;20176;-60
2023/10/22 00:50:53;;;;;;;1.05;0.80;;;17.60;70.40;;;;;;5092247;28;20181;-59
2023/10/22 00:53:19;;;;;;;1.15;0.70;;;17.60;70.40;;;;;;5113375;28;20261;-60
2023/10/22 00:55:47;;;;;;;1.92;0.70;;;17.50;70.60;;;;;;5094182;28;20563;-60
2023/10/22 00:58:16;;;;;;;1.65;0.63;;;17.50;70.30;;;;;;5112532;28;20177;-60
2023/10/22 01:00:42;;;;;;;1.38;0.70;;;17.50;70.50;;;;;;5113513;27;20238;-58
2023/10/22 01:03:07;;;;;;;1.27;0.85;;;17.50;70.50;;;;;;5099058;27;20168;-59
2023/10/22 01:05:39;;;;;;;1.27;0.70;;;17.50;70.40;;;;;;5122067;27;20177;-60
2023/10/22 01:08:08;;;;;;;1.75;0.63;;;17.50;70.40;;;;;;5113840;27;20180;-59
2023/10/22 01:10:33;;;;;;;1.10;0.55;;;17.50;70.40;;;;;;5112506;28;20265;-60
2023/10/22 01:12:59;;;;;;;1.27;0.65;;;17.50;71.40;;;;;;5112990;28;20695;-60
2023/10/22 01:15:26;;;;;;;1.85;0.90;;;17.50;70.50;;;;;;5113437;28;20184;-59
2023/10/22 01:17:51;;;;;;;1.48;0.98;;;17.50;70.40;;;;;;5115666;27;20239;-59
2023/10/22 01:20:17;;;;;;;1.95;0.60;;;17.50;70.60;;;;;;5120314;27;20649;-60
2023/10/22 01:22:42;;;;;;;1.60;0.85;;;17.50;70.60;;;;;;5132739;27;20168;-60
2023/10/22 01:25:08;;;;;;;1.17;0.55;;;17.50;70.60;;;;;;5133612;27;20171;-59
2023/10/22 01:27:34;;;;;;;1.77;0.90;;;17.50;70.80;;;;;;5133128;27;20180;-59
2023/10/22 01:30:00;;;;;;;1.50;0.80;;;17.50;70.50;;;;;;5132175;27;20820;-59
2023/10/22 01:32:30;;;;;;;1.90;1.20;;;17.50;70.80;;;;;;5133657;27;20212;-59
2023/10/22 01:34:59;;;;;;;1.33;0.70;;;17.50;70.60;;;;;;5133622;27;20176;-59
2023/10/22 01:37:24;;;;;;;1.73;0.93;;;17.40;70.80;;;;;;5131472;27;20177;-59
2023/10/22 01:39:50;;;;;;;1.67;0.60;;;17.40;70.60;;;;;;5132242;28;20221;-59
2023/10/22 01:42:16;;;;;;;1.27;0.70;;;17.40;70.70;;;;;;5133361;28;20172;-60
2023/10/22 01:44:41;;;;;;;2.78;0.60;;;17.40;70.70;;;;;;5132969;28;20244;-59
2023/10/22 01:47:07;;;;;;;1.85;0.82;;;17.50;70.80;;;;;;5133566;28;20258;-59
2023/10/22 01:49:32;;;;;;;1.30;0.77;;;17.40;70.80;;;;;;5116583;28;20303;-60
2023/10/22 01:51:58;;;;;;;1.45;0.50;;;17.40;70.70;;;;;;5112019;28;20316;-60
2023/10/22 01:54:24;;;;;;;1.92;0.60;;;17.40;70.70;;;;;;5113055;28;20169;-60
2023/10/22 01:56:49;;;;;;;2.38;0.80;;;17.40;70.80;;;;;;5111935;28;20173;-60
2023/10/22 01:59:15;;;;;;;2.30;0.70;;;17.40;70.80;;;;;;5111910;28;20177;-60
2023/10/22 02:01:42;;;;;;;1.67;0.77;;;17.40;70.80;;;;;;5112278;28;20627;-60
2023/10/22 02:04:08;;;;;;;0.93;0.57;;;17.40;70.90;;;;;;5112503;28;20173;-59
2023/10/22 02:06:33;;;;;;;1.42;0.47;;;17.40;71.00;;;;;;5111844;28;20203;-59
2023/10/22 02:09:00;;;;;;;1.10;0.88;;;17.40;71.00;;;;;;5111735;28;20165;-60
2023/10/22 02:11:26;;;;;;;1.15;0.63;;;17.40;71.00;;;;;;5112197;28;20567;-59
2023/10/22 02:13:52;;;;;;;1.50;0.73;;;17.40;71.90;;;;;;5112260;28;20173;-60
2023/10/22 02:16:18;;;;;;;1.70;0.47;;;17.40;71.00;;;;;;5112437;28;20169;-59
2023/10/22 02:18:44;;;;;;;1.08;0.52;;;17.40;70.90;;;;;;5115902;28;20181;-61
2023/10/22 02:21:10;;;;;;;0.93;0.55;;;17.40;70.90;;;;;;5112038;28;20180;-59
2023/10/22 02:23:35;;;;;;;1.77;0.57;;;17.40;71.00;;;;;;5112229;28;20173;-60
2023/10/22 02:26:01;;;;;;;0.82;0.68;;;17.40;71.00;;;;;;5111341;28;20177;-59
2023/10/22 02:28:26;;;;;;;0.60;0.47;;;17.40;70.90;;;;;;5112288;28;20177;-60
2023/10/22 02:30:52;;;;;;;1.20;0.50;;;17.40;71.00;;;;;;5112567;28;20169;-59
2023/10/22 02:33:17;;;;;;;0.65;0.40;;;17.40;70.90;;;;;;5111748;28;20987;-60
2023/10/22 02:35:44;;;;;;;1.88;0.60;;;17.40;71.10;;;;;;5116308;28;20640;-60
2023/10/22 02:38:14;;;;;;;1.30;0.75;;;17.40;71.10;;;;;;5116204;28;20179;-59
2023/10/22 02:40:39;;;;;;;1.92;0.68;;;17.40;71.10;;;;;;5115577;28;20201;-60
2023/10/22 02:43:05;;;;;;;1.45;0.50;;;17.40;71.10;;;;;;5115694;28;20201;-59
2023/10/22 02:45:31;;;;;;;0.82;0.35;;;17.40;71.20;;;;;;5116095;28;20173;-58
2023/10/22 02:47:59;;;;;;;3.05;0.77;;;17.40;71.20;;;;;;5115157;28;20200;-60
2023/10/22 02:50:25;;;;;;;1.40;0.82;;;17.40;71.30;;;;;;5115422;28;20180;-60
2023/10/22 02:52:51;;;;;;;1.30;0.70;;;17.30;71.30;;;;;;5115594;28;20286;-60
2023/10/22 02:55:17;;;;;;;2.22;0.45;;;17.40;71.20;;;;;;5114795;28;20175;-60
2023/10/22 02:57:43;;;;;;;2.42;0.68;;;17.30;71.20;;;;;;5115637;28;20177;-59
2023/10/22 03:00:12;;;;;;;0.55;0.55;;;17.40;71.40;;;;;;5115195;28;20696;-60
2023/10/22 03:02:38;;;;;;;1.20;0.60;;;17.30;71.30;;;;;;5114467;28;20181;-59
2023/10/22 03:05:04;;;;;;;0.60;0.60;;;17.30;71.40;;;;;;5115151;28;20173;-60
2023/10/22 03:07:29;;;;;;;1.65;0.70;;;17.30;71.40;;;;;;5115045;28;20531;-59
2023/10/22 03:09:55;;;;;;;0.68;0.40;;;17.30;71.40;;;;;;5114152;28;20199;-60
2023/10/22 03:12:20;;;;;;;1.15;0.45;;;17.30;71.30;;;;;;5114665;28;20297;-60
2023/10/22 03:14:48;;;;;;;1.63;0.50;;;17.30;71.40;;;;;;5115426;28;20207;-59
2023/10/22 03:17:13;;;;;;;2.75;0.90;;;17.30;71.40;;;;;;5114128;28;20173;-58
2023/10/22 03:19:39;;;;;;;1.45;0.60;;;17.30;71.50;;;;;;5115559;28;20176;-59
2023/10/22 03:22:04;;;;;;;0.40;0.40;;;17.30;71.50;;;;;;5114842;28;20177;-58
2023/10/22 03:24:30;;;;;;;0.63;0.43;;;17.30;71.50;;;;;;5114441;28;20177;-59
2023/10/22 03:26:56;;;;;;;1.23;0.70;;;17.30;71.70;;;;;;5115279;28;20177;-58
2023/10/22 03:29:22;;;;;;;0.98;0.47;;;17.30;71.60;;;;;;5117887;27;20191;-58
2023/10/22 03:31:47;;;;;;;1.48;0.80;;;17.30;71.50;;;;;;5114809;28;20200;-59
2023/10/22 03:34:13;;;;;;;0.73;0.70;;;17.30;71.60;;;;;;5115118;28;20184;-59
2023/10/22 03:36:39;;;;;;;1.30;0.60;;;17.30;71.40;;;;;;5114207;28;20201;-59
2023/10/22 03:39:06;;;;;;;1.40;0.60;;;17.30;71.40;;;;;;5114846;28;20522;-59
2023/10/22 03:41:32;;;;;;;0.70;0.70;;;17.30;71.70;;;;;;5114982;28;20242;-59
2023/10/22 03:43:58;;;;;;;0.85;0.65;;;17.30;71.60;;;;;;5113937;28;20218;-58
2023/10/22 03:46:24;;;;;;;1.00;0.52;;;17.30;71.70;;;;;;5114204;28;20543;-58
2023/10/22 03:48:49;;;;;;;0.68;0.60;;;17.20;71.70;;;;;;5114690;27;20173;-59
2023/10/22 03:51:15;;;;;;;1.42;0.73;;;17.20;71.70;;;;;;5113481;28;20221;-58
2023/10/22 03:53:41;;;;;;;1.48;0.70;;;17.20;71.80;;;;;;5114296;28;20177;-58
2023/10/22 03:56:07;;;;;;;1.15;0.73;;;17.20;71.80;;;;;;5114654;28;20177;-59
2023/10/22 03:58:32;;;;;;;0.47;0.47;;;17.30;71.80;;;;;;5113593;28;20188;-58
2023/10/22 04:01:01;;;;;;;1.13;0.90;;;17.20;71.60;;;;;;5114015;28;20165;-58
2023/10/22 04:03:26;;;;;;;1.50;0.70;;;17.30;71.90;;;;;;5114644;28;20238;-58
2023/10/22 04:05:56;;;;;;;1.88;0.88;;;17.20;71.60;;;;;;5113842;28;20640;-57
2023/10/22 04:08:22;;;;;;;1.63;0.65;;;17.20;71.50;;;;;;5113304;28;20212;-59
2023/10/22 04:10:48;;;;;;;2.25;0.80;;;17.20;71.90;;;;;;5114113;28;20185;-59
2023/10/22 04:13:13;;;;;;;1.15;0.63;;;17.20;71.40;;;;;;5113457;28;20209;-58
2023/10/22 04:15:39;;;;;;;1.00;0.82;;;17.20;71.60;;;;;;5114187;28;20166;-59
2023/10/22 04:18:05;;;;;;;0.77;0.57;;;17.20;71.90;;;;;;5113063;28;20177;-59
2023/10/22 04:20:33;;;;;;;1.67;0.75;;;17.20;72.00;;;;;;5113014;28;20169;-59
2023/10/22 04:22:58;;;;;;;1.23;0.75;;;17.20;71.60;;;;;;5114165;28;20186;-59
2023/10/22 04:25:25;;;;;;;2.70;0.80;;;17.20;72.00;;;;;;5114321;28;20534;-58
2023/10/22 04:27:50;;;;;;;1.33;0.60;;;17.20;71.70;;;;;;5113474;28;20263;-59
2023/10/22 04:30:16;;;;;;;1.10;0.88;;;17.20;72.50;;;;;;5113250;28;20265;-59
2023/10/22 04:32:41;;;;;;;1.42;0.63;;;17.20;71.90;;;;;;5112990;28;20204;-58
2023/10/22 04:35:07;;;;;;;1.17;0.80;;;17.20;71.90;;;;;;5113547;28;20577;-59
2023/10/22 04:37:33;;;;;;;1.50;0.80;;;17.20;71.90;;;;;;5113283;27;20710;-59
2023/10/22 04:39:58;;;;;;;0.82;0.50;;;17.20;71.70;;;;;;5113371;28;20173;-59
2023/10/22 04:42:24;;;;;;;1.60;0.85;;;17.20;72.10;;;;;;5112900;28;20169;-59
2023/10/22 04:44:49;;;;;;;1.85;0.38;;;17.20;71.70;;;;;;5113269;28;20310;-59
2023/10/22 04:47:15;;;;;;;2.05;0.80;;;17.20;72.10;;;;;;5112562;28;20192;-59
2023/10/22 04:49:43;;;;;;;0.75;0.60;;;17.10;71.80;;;;;;5115610;27;20229;-60
2023/10/22 04:52:10;;;;;;;0.80;0.65;;;17.20;72.20;;;;;;5133455;27;20686;-60
2023/10/22 04:54:36;;;;;;;0.73;0.50;;;17.20;71.90;;;;;;5133181;27;20172;-60
2023/10/22 04:57:02;;;;;;;0.60;0.52;;;17.20;72.10;;;;;;5132349;27;20183;-60
2023/10/22 04:59:28;;;;;;;0.40;0.32;;;17.20;72.10;;;;;;5113390;28;20636;-59
2023/10/22 05:01:53;;;;;;;1.50;0.77;;;17.20;72.10;;;;;;5112772;28;20222;-59
2023/10/22 05:04:19;;;;;;;0.70;0.68;;;17.10;72.10;;;;;;5113162;28;20173;-59
2023/10/22 05:06:45;;;;;;;0.95;0.90;;;17.20;72.10;;;;;;5127774;27;20184;-59
2023/10/22 05:09:10;;;;;;;1.08;0.80;;;17.10;72.00;;;;;;5114164;27;20173;-59
2023/10/22 05:11:36;;;;;;;2.50;0.80;;;17.10;72.10;;;;;;5112478;28;20278;-60
2023/10/22 05:14:01;;;;;;;2.08;0.60;;;17.10;72.20;;;;;;5112371;28;20684;-59
2023/10/22 05:16:27;;;;;;;1.75;0.75;;;17.10;71.80;;;;;;5112186;28;20818;-59
2023/10/22 05:18:53;;;;;;;1.15;0.75;;;17.10;72.20;;;;;;5113456;28;20611;-59
2023/10/22 05:21:18;;;;;;;0.60;0.60;;;17.10;72.20;;;;;;5113185;28;20789;-60
2023/10/22 05:23:44;;;;;;;1.88;0.70;;;17.10;72.30;;;;;;5112371;28;20534;-58
2023/10/22 05:26:11;;;;;;;2.25;0.68;;;17.20;72.50;;;;;;5113194;28;20268;-59
2023/10/22 05:28:37;;;;;;;1.00;0.68;;;17.10;72.50;;;;;;5113148;28;20177;-59
2023/10/22 05:31:10;;;;;;;1.08;0.60;;;17.10;72.60;;;;;;5112193;28;20176;-59
2023/10/22 05:33:35;;;;;;;0.88;0.60;;;17.10;72.40;;;;;;5112813;28;20625;-59
2023/10/22 05:36:03;;;;;;;1.42;0.88;;;17.10;72.20;;;;;;5112161;28;20687;-59
2023/10/22 05:38:28;;;;;;;1.25;0.30;;;17.10;72.50;;;;;;5112946;28;20184;-58
2023/10/22 05:40:54;;;;;;;0.55;0.55;;;17.10;72.50;;;;;;5113190;28;20169;-59
2023/10/22 05:43:19;;;;;;;0.95;0.70;;;17.10;72.20;;;;;;5111971;28;20195;-59
2023/10/22 05:45:45;;;;;;;1.15;0.90;;;17.10;72.50;;;;;;5112825;28;20234;-58
2023/10/22 05:48:10;;;;;;;0.88;0.80;;;17.10;72.20;;;;;;5112582;28;20234;-59
2023/10/22 05:50:39;;;;;;;0.60;0.60;;;17.10;71.90;;;;;;5111425;28;20173;-59
2023/10/22 05:53:05;;;;;;;1.08;0.70;;;17.10;72.00;;;;;;5112191;28;20266;-59
2023/10/22 05:55:30;;;;;;;1.35;0.82;;;17.10;71.60;;;;;;5111820;28;20173;-59
2023/10/22 05:57:56;;;;;;;1.30;0.82;;;17.10;71.70;;;;;;5111879;28;20184;-59
2023/10/22 06:00:22;;;;;;;1.67;0.95;;;17.00;71.70;;;;;;5112487;28;20181;-59
2023/10/22 06:02:48;;;;;;;0.60;0.60;;;17.10;72.10;;;;;;5112741;28;20632;-59
2023/10/22 06:05:13;;;;;;;0.70;0.70;;;17.10;72.20;;;;;;5112083;28;20172;-59
2023/10/22 06:07:39;;;;;;;1.10;0.70;;;17.00;72.80;;;;;;5112604;28;20210;-58
2023/10/22 06:10:05;;;;;;;0.80;0.60;;;17.10;72.00;;;;;;5115648;28;20260;-59
2023/10/22 06:12:30;;;;;;;1.63;0.80;;;17.10;72.10;;;;;;5115554;28;20559;-59
2023/10/22 06:15:03;;;;;;;0.47;0.43;;;17.00;71.70;;;;;;5115911;28;20184;-59
2023/10/22 06:17:30;;;;;;;1.15;0.90;;;17.00;72.00;;;;;;5116444;27;20200;-59
2023/10/22 06:19:55;;;;;;;0.68;0.60;;;17.00;72.00;;;;;;5115894;28;20580;-59
2023/10/22 06:22:21;;;;;;;1.10;1.00;;;17.00;72.00;;;;;;5116352;28;20230;-59
2023/10/22 06:24:46;;;;;;;0.70;0.60;;;17.00;72.10;;;;;;5116712;28;20218;-59
2023/10/22 06:27:12;;;;;;;1.08;0.75;;;17.00;72.40;;;;;;5115600;28;20177;-59
2023/10/22 06:29:37;;;;;;;1.23;0.77;;;17.10;72.40;;;;;;5116386;28;20177;-59
2023/10/22 06:32:03;;;;;;;1.02;0.90;;;17.00;72.20;;;;;;5115888;28;20261;-59
2023/10/22 06:34:29;;;;;;;1.00;0.90;;;17.00;72.40;;;;;;5115679;28;20179;-58
2023/10/22 06:36:55;;;;;;;1.17;0.60;;;17.00;72.30;;;;;;5115851;28;20541;-59
2023/10/22 06:39:21;;;;;;;0.70;0.65;;;17.00;72.30;;;;;;5114498;28;20521;-58
2023/10/22 06:41:46;;;;;;;0.82;0.82;;;17.00;72.40;;;;;;5115905;28;20680;-58
2023/10/22 06:44:12;;;;;;;1.17;0.82;;;17.00;72.40;;;;;;5115895;28;20173;-58
2023/10/22 06:46:38;;;;;;;0.95;0.63;;;17.00;72.30;;;;;;5115390;28;20169;-59
2023/10/22 06:49:03;;;;;;;0.70;0.70;;;17.00;72.40;;;;;;5120336;27;20165;-59
2023/10/22 06:51:29;;;;;;;0.93;0.80;;;17.00;73.30;;;;;;5133177;27;20587;-59
2023/10/22 06:53:54;;;;;;;0.68;0.68;;;17.00;72.50;;;;;;5136165;27;20515;-60
2023/10/22 06:56:20;;;;;;;0.90;0.80;;;17.00;72.10;;;;;;5136315;27;20653;-60
2023/10/22 06:58:46;;;;;;;0.70;0.70;;;17.00;72.10;;;;;;5125540;27;20273;-60
2023/10/22 07:01:12;;;;;;;0.60;0.60;;;17.00;72.20;;;;;;5124776;27;20259;-58
2023/10/22 07:03:40;;;;;;;1.40;0.98;;;17.00;72.10;;;;;;5136464;27;20176;-59
2023/10/22 07:06:06;;;;;;;1.05;0.70;;;17.00;72.10;;;;;;5135789;27;20180;-59
2023/10/22 07:08:31;;;;;;;0.70;0.70;;;17.00;72.20;;;;;;5134063;27;20177;-60
2023/10/22 07:10:57;;;;;;;1.85;0.90;;;17.00;72.20;;;;;;5136065;27;20177;-60
2023/10/22 07:13:23;;;;;;;1.35;0.80;;;17.00;72.40;;;;;;5135699;27;20662;-60
2023/10/22 07:15:49;;;;;;;1.10;1.00;;;17.00;72.20;;;;;;5134404;27;20531;-59
2023/10/22 07:18:14;;;;;;;0.95;0.75;;;17.00;72.10;;;;;;5135364;27;20168;-59
2023/10/22 07:20:40;;;;;;;0.93;0.90;;;17.00;72.20;;;;;;5135671;27;20635;-59
2023/10/22 07:23:06;;;;;;;1.50;0.73;;;17.00;72.10;;;;;;5135253;27;20172;-59
2023/10/22 07:25:32;;;;;;;1.27;0.93;;;17.00;71.90;;;;;;5135914;27;20179;-59
2023/10/22 07:27:58;;;;;;;1.70;0.80;;;17.10;72.00;;;;;;5135522;27;20181;-58
2023/10/22 07:30:23;;;;;;;1.00;0.90;;;17.00;72.10;;;;;;5135108;27;20206;-59
2023/10/22 07:32:51;;;;;;;0.95;0.90;;;17.00;72.00;;;;;;5117017;27;20209;-59
2023/10/22 07:35:16;;;;;;;1.90;1.02;;;17.00;71.90;;;;;;5115013;28;20592;-59
2023/10/22 07:37:44;;;;;;;2.33;0.90;;;17.00;71.90;;;;;;5114345;28;20625;-59
2023/10/22 07:40:10;;;;;;;1.20;0.70;;;17.10;71.90;;;;;;5126903;27;20173;-58
2023/10/22 07:42:36;;;;;;;1.35;1.00;;;17.00;72.00;;;;;;5113976;28;20260;-59
2023/10/22 07:45:01;;;;;;;2.20;1.00;;;17.10;73.30;;;;;;5115036;28;20255;-59
2023/10/22 07:47:27;;;;;;;1.30;0.90;;;17.10;73.60;;;;;;5114832;28;20252;-59
2023/10/22 07:49:53;;;;;;;1.15;0.80;;;17.10;74.10;;;;;;5131430;27;20690;-59
2023/10/22 07:52:18;;;;;;;0.93;0.85;;;17.10;73.80;;;;;;5134703;27;20228;-59
2023/10/22 07:54:47;;;;;;;0.90;0.80;;;17.10;73.90;;;;;;5135268;27;20256;-59
2023/10/22 07:57:13;;;;;;;1.23;0.77;;;17.10;73.60;;;;;;5134268;27;20232;-59
2023/10/22 07:59:38;;;;;;;2.05;0.98;;;17.20;73.50;;;;;;5134945;27;20176;-59
2023/10/22 08:02:04;;;;;;;1.05;0.90;;;17.20;73.20;;;;;;5134652;27;20180;-58
2023/10/22 08:04:29;;;;;;;0.80;0.70;;;17.20;73.10;;;;;;5134178;27;20179;-59
2023/10/22 08:06:55;;;;;;;2.05;0.70;;;17.30;72.80;;;;;;5135047;27;20176;-59
2023/10/22 08:09:20;;;;;;;1.48;0.80;;;17.30;72.60;;;;;;5134434;27;20177;-58
2023/10/22 08:11:46;;;;;;;1.08;0.75;;;17.30;72.30;;;;;;5134002;27;20208;-58
2023/10/22 08:14:11;;;;;;;1.60;0.98;;;17.40;72.10;;;;;;5134036;27;20184;-59
2023/10/22 08:16:37;;;;;;;1.00;0.82;;;17.40;71.80;;;;;;5134732;27;20197;-59
2023/10/22 08:19:03;;;;;;;1.23;1.08;;;17.40;71.70;;;;;;5133381;27;20199;-59
2023/10/22 08:21:28;;;;;;;0.98;0.80;;;17.50;71.60;;;;;;5134277;27;20209;-59
2023/10/22 08:23:54;;;;;;;0.98;0.98;;;17.50;71.50;;;;;;5134819;27;20177;-59
2023/10/22 08:26:21;;;;;;;1.35;0.85;;;17.50;71.40;;;;;;5133629;27;20168;-58
2023/10/22 08:28:46;;;;;;;1.85;0.73;;;17.50;71.40;;;;;;5134045;27;20639;-59
2023/10/22 08:31:12;;;;;;;1.23;1.00;;;17.60;71.40;;;;;;5133542;27;20290;-58
2023/10/22 08:33:38;;;;;;;1.10;1.00;;;17.60;71.40;;;;;;5133573;27;20307;-59
2023/10/22 08:36:07;;;;;;;0.82;0.82;;;17.60;71.50;;;;;;5133943;27;20188;-59
2023/10/22 08:38:33;;;;;;;2.45;1.17;;;17.60;71.40;;;;;;5133986;27;20255;-58
2023/10/22 08:41:00;;;;;;;1.38;0.80;;;17.60;71.40;;;;;;5133460;27;20212;-58
2023/10/22 08:43:28;;;;;;;1.88;0.90;;;17.70;71.30;;;;;;5134466;27;20168;-59
2023/10/22 08:45:54;;;;;;;1.58;0.77;;;17.70;71.40;;;;;;5115188;27;20179;-59
2023/10/22 08:48:20;;;;;;;0.75;0.75;;;17.70;71.40;;;;;;5115347;27;20178;-58
2023/10/22 08:50:48;;;;;;;0.75;0.70;;;17.70;71.30;;;;;;5115560;27;20179;-59
2023/10/22 08:53:14;;;;;;;2.83;0.90;;;17.80;71.40;;;;;;5133010;27;20204;-59
2023/10/22 08:55:45;;;;;;;1.60;1.00;;;17.70;71.30;;;;;;5134354;27;20639;-59
2023/10/22 08:58:11;;;;;;;1.13;0.70;;;17.70;71.40;;;;;;5133759;27;20191;-60
2023/10/22 09:00:36;;;;;;;1.40;0.73;;;17.70;71.60;;;;;;5115030;27;20176;-59
2023/10/22 09:03:03;;;;;;;2.58;0.73;;;17.60;71.70;;;;;;5115522;27;20236;-58
2023/10/22 09:05:29;;;;;;;0.98;0.60;;;17.60;71.70;;;;;;5134074;27;20180;-58
2023/10/22 09:07:54;;;;;;;1.40;0.70;;;17.50;71.90;;;;;;5098237;27;20188;-59
2023/10/22 09:10:29;;;;;;;1.05;0.70;;;17.50;72.00;;;;;;5133202;27;20173;-58
2023/10/22 09:13:06;;;;;;;0.70;0.70;;;17.50;72.10;;;;;;5133754;27;20230;-60
2023/10/22 09:15:38;;;;;;;2.47;0.80;;;17.40;72.20;;;;;;5132905;27;20588;-59
2023/10/22 09:18:04;;;;;;;19.58;1.05;;;17.40;72.20;;;;;;5129147;27;20537;-59
2023/10/22 09:20:30;;;;;;;0.60;0.60;;;17.40;72.30;;;;;;5133631;27;20187;-59
2023/10/22 09:23:15;;;;;;;0.73;0.60;;;17.40;72.40;;;;;;5133020;27;20175;-59
2023/10/22 09:25:41;;;;;;;1.00;0.70;;;17.40;72.50;;;;;;5133770;27;20176;-59
2023/10/22 09:28:20;;;;;;;1.08;0.50;;;17.30;72.40;;;;;;5132497;27;20171;-59
2023/10/22 09:30:54;;;;;;;0.65;0.60;;;17.30;72.50;;;;;;5133399;27;20211;-58
2023/10/22 09:33:36;;;;;;;0.80;0.57;;;17.30;72.50;;;;;;5133254;27;20567;-58
2023/10/22 09:36:09;;;;;;;0.93;0.70;;;17.30;72.50;;;;;;5115979;27;20731;-59
2023/10/22 09:38:47;;;;;;;1.27;0.85;;;17.30;72.60;;;;;;5133460;27;20277;-59
2023/10/22 09:41:31;;;;;;;0.52;0.50;;;17.30;72.60;;;;;;5132791;27;20190;-58
2023/10/22 09:43:58;;;;;;;1.13;0.73;;;17.30;72.60;;;;;;5132699;27;20179;-58
2023/10/22 09:46:32;;;;;;;1.88;0.63;;;17.30;72.60;;;;;;5133101;28;20215;-59
2023/10/22 09:48:58;;;;;;;0.98;0.70;;;17.30;72.60;;;;;;5133004;28;20698;-59
2023/10/22 09:51:25;;;;;;;0.90;0.77;;;17.30;72.60;;;;;;5132156;28;20219;-58
2023/10/22 09:53:52;;;;;;;1.67;0.77;;;17.30;72.60;;;;;;5114724;28;20180;-59
2023/10/22 09:56:19;;;;;;;1.40;0.77;;;17.30;72.60;;;;;;5132316;28;20176;-59
2023/10/22 09:58:44;;;;;;;1.13;0.70;;;17.30;72.50;;;;;;5133030;28;20245;-59
2023/10/22 10:01:10;;;;;;;1.50;0.60;;;17.30;72.50;;;;;;5114908;28;20172;-59
2023/10/22 10:03:37;;;;;;;0.60;0.57;;;17.30;72.50;;;;;;5132240;28;20172;-59
2023/10/22 10:06:05;;;;;;;0.68;0.68;;;17.30;72.50;;;;;;5132812;28;20184;-58
2023/10/22 10:08:31;;;;;;;0.80;0.80;;;17.30;72.40;;;;;;5114643;28;20181;-59
2023/10/22 10:10:56;;;;;;;1.40;0.65;;;17.40;72.40;;;;;;5132654;28;20169;-59
2023/10/22 10:13:22;;;;;;;0.70;0.70;;;17.40;72.30;;;;;;5114523;28;20212;-58
2023/10/22 10:15:58;;;;;;;1.80;0.93;;;17.40;72.30;;;;;;5133256;28;20165;-59
2023/10/22 10:19:01;;;;;;;1.13;0.73;;;17.40;72.40;;;;;;5131732;28;20184;-58
2023/10/22 10:21:36;;;;;;;1.23;0.77;;;17.30;72.50;;;;;;5117582;28;20545;-58
2023/10/22 10:24:21;;;;;;;2.47;0.70;;;17.40;72.60;;;;;;5132723;28;20199;-60
2023/10/22 10:26:47;;;;;;;1.20;0.70;;;17.30;72.60;;;;;;5132508;28;20223;-59
2023/10/22 10:29:17;;;;;;;0.60;0.60;;;17.30;72.60;;;;;;5131915;28;20203;-58
2023/10/22 10:31:47;;;;;;;2.25;0.90;;;17.30;72.40;;;;;;5131880;28;20177;-59
2023/10/22 10:34:32;;;;;;;1.42;1.10;;;17.40;72.50;;;;;;5132663;28;20241;-58
2023/10/22 10:37:28;;;;;;;1.67;0.70;;;17.40;72.40;;;;;;5098581;28;20653;-58
2023/10/22 10:39:54;;;;;;;2.25;1.00;;;17.40;72.40;;;;;;5131515;28;20196;-60
2023/10/22 10:42:28;;;;;;;2.88;1.00;;;17.40;72.40;;;;;;5132599;28;20169;-59
2023/10/22 10:44:57;;;;;;;5.80;1.35;;;17.40;72.40;;;;;;5133038;28;20179;-59
2023/10/22 10:47:27;;;;;;;3.78;1.42;;;17.40;72.70;;;;;;5131883;28;20194;-60
2023/10/22 10:50:12;;;;;;;3.97;1.35;;;17.50;72.80;;;;;;5132803;28;20180;-59
2023/10/22 10:52:37;;;;;;;3.20;1.20;;;17.50;73.10;;;;;;5131699;28;20276;-59
2023/10/22 10:55:08;;;;;;;6.32;1.38;;;17.60;73.20;;;;;;5134023;27;20168;-66
2023/10/22 10:57:37;;;;;;;4.70;1.65;;;17.60;73.20;;;;;;5136093;27;20206;-67
2023/10/22 11:00:09;;;;;;;4.38;1.50;;;17.70;73.40;;;;;;5135621;27;20172;-68
2023/10/22 11:02:41;;;;;;;4.43;1.67;;;17.70;73.40;;;;;;5135789;27;20533;-66
2023/10/22 11:05:07;;;;;;;5.03;1.80;;;17.80;73.30;;;;;;5136123;27;20172;-66
2023/10/22 11:07:33;;;;;;;6.35;1.67;;;17.80;73.40;;;;;;5135491;27;20237;-66
2023/10/22 11:09:59;;;;;;;8.00;1.98;;;17.80;73.40;;;;;;5135827;27;20173;-67
2023/10/22 11:12:25;;;;;;;3.80;1.67;;;17.90;73.50;;;;;;5116919;27;20299;-67
2023/10/22 11:14:55;;;;;;;4.60;1.63;;;17.90;73.70;;;;;;5135391;27;20255;-67
2023/10/22 11:17:20;;;;;;;5.68;2.03;;;17.90;73.80;;;;;;5135815;27;20172;-66
2023/10/22 11:19:49;;;;;;;7.13;2.20;;;17.90;73.80;;;;;;5135850;27;20165;-65
2023/10/22 11:22:15;;;;;;;3.58;1.45;;;17.90;73.80;;;;;;5134649;27;20168;-67
2023/10/22 11:24:40;;;;;;;2.67;1.83;;;18.00;73.80;;;;;;5135709;27;20691;-67
2023/10/22 11:27:06;;;;;;;6.22;2.20;;;17.90;73.60;;;;;;5117124;27;20173;-66
2023/10/22 11:29:46;;;;;;;5.80;1.90;;;17.80;73.70;;;;;;5116282;27;20179;-66
2023/10/22 11:32:13;;;;;;;5.28;1.85;;;17.80;73.70;;;;;;5135378;27;20303;-68
2023/10/22 11:34:54;;;;;;;5.25;2.70;;;17.80;73.80;;;;;;5134930;27;20179;-68
2023/10/22 11:37:21;;;;;;;8.73;5.00;;;17.80;73.70;;;;;;5135488;27;20176;-68
2023/10/22 11:39:46;;;;;;;9.63;4.13;;;17.80;73.70;;;;;;5135123;27;20203;-67
2023/10/22 11:42:13;;;;;;;19.30;7.90;;;17.80;73.60;;;;;;5134347;27;20172;-68
2023/10/22 11:44:42;;;;;;;20.17;10.45;;;17.80;73.60;;;;;;5135430;27;20245;-68
2023/10/22 11:47:25;;;;;;;20.20;9.05;;;17.80;73.50;;;;;;5117256;27;20195;-67
2023/10/22 11:49:51;;;;;;;22.27;11.40;;;17.80;73.40;;;;;;5134456;27;20173;-68
2023/10/22 11:52:39;;;;;;;21.98;10.95;;;17.80;73.50;;;;;;5134592;27;20571;-66
2023/10/22 11:55:08;;;;;;;22.95;10.73;;;17.80;73.30;;;;;;5125819;27;20177;-68
2023/10/22 11:57:37;;;;;;;23.67;11.77;;;17.90;73.10;;;;;;5123348;27;20248;-71
2023/10/22 12:00:09;;;;;;;22.73;11.95;;;17.90;73.00;;;;;;5129428;27;20184;-75
2023/10/22 12:02:35;;;;;;;24.20;11.95;;;17.90;72.90;;;;;;5114092;28;20184;-68
2023/10/22 12:05:02;;;;;;;21.38;10.40;;;17.90;73.00;;;;;;5113341;28;20173;-67
2023/10/22 12:07:27;;;;;;;30.05;12.20;;;17.90;72.80;;;;;;5113353;28;20177;-68
2023/10/22 12:09:53;;;;;;;20.60;12.52;;;17.90;72.90;;;;;;5113459;28;20192;-68
2023/10/22 12:12:20;;;;;;;22.85;12.13;;;17.80;72.90;;;;;;5113768;28;20236;-68
2023/10/22 12:14:48;;;;;;;24.83;12.05;;;17.90;73.10;;;;;;5114160;28;20168;-69
2023/10/22 12:17:15;;;;;;;25.13;13.05;;;17.90;73.10;;;;;;5112887;28;20196;-67
2023/10/22 12:19:40;;;;;;;23.50;12.38;;;17.90;73.20;;;;;;5114045;28;20181;-68
2023/10/22 12:22:06;;;;;;;23.88;12.93;;;17.90;73.20;;;;;;5114295;28;20176;-69
2023/10/22 12:24:31;;;;;;;24.90;14.20;;;18.00;73.10;;;;;;5113225;28;20177;-68
2023/10/22 12:26:57;;;;;;;28.17;13.77;;;17.90;73.00;;;;;;5113770;28;20265;-70
2023/10/22 12:29:25;;;;;;;24.63;13.60;;;18.00;73.10;;;;;;5113643;28;20256;-70
2023/10/22 12:31:51;;;;;;;31.58;14.30;;;18.00;73.90;;;;;;5113105;28;20287;-69
2023/10/22 12:34:16;;;;;;;23.45;13.18;;;18.00;72.90;;;;;;5113162;28;20264;-70
2023/10/22 12:36:42;;;;;;;26.63;13.32;;;18.00;72.90;;;;;;5114051;28;20250;-70
2023/10/22 12:39:07;;;;;;;28.23;13.45;;;18.10;72.90;;;;;;5112928;28;20173;-71
2023/10/22 12:41:34;;;;;;;24.98;12.52;;;18.10;72.90;;;;;;5113784;28;20246;-69
2023/10/22 12:43:59;;;;;;;24.80;12.18;;;18.00;72.90;;;;;;5113663;28;20177;-69
2023/10/22 12:46:25;;;;;;;26.38;12.45;;;18.00;73.00;;;;;;5112798;28;20175;-67